Terminal Aerodrome Forecast
Issued by NWS

Home | Current Version | Previous Version | Text Only | Print | Product List | Glossary On
Versions: 1 2 3 4 5 6 7 8 9 10 11 12 13 14 15 16
498
FTUS43 KEAX 221120
TAFMKC
TAF
KMKC 221120Z 2212/2312 05005KT 6SM -FZRA OVC008
     FM221400 07005KT P6SM VCSH OVC008
     FM221600 08005KT P6SM OVC008
     FM222000 09004KT 5SM -RA OVC008
     FM230100 VRB04KT 4SM -RA OVC003
     FM230600 VRB03KT P6SM OVC004=

USA.gov is the U.S. government's official web portal to all federal, state and local government web resources and services.